Time;durP1;ratioP1;P1;durP2;ratioP2;P2;SDS_P1;SDS_P2;PMS_P1;PMS_P2;Temp;Humidity;BMP_temperature;BMP_pressure;BME280_temperature;BME280_humidity;BME280_pressure;Samples;Min_cycle;Max_cycle;Signal;HPM_P1;HPM_P2
2020/12/08 00:03:19;;;;;;;35.47;25.08;;;6.30;98.60;;;;;;10426727;28;20126;-68
2020/12/08 00:08:21;;;;;;;34.60;23.73;;;6.20;98.70;;;;;;10428064;28;20080;-68
2020/12/08 00:13:22;;;;;;;34.90;24.25;;;6.20;98.90;;;;;;10432803;28;20140;-68
2020/12/08 00:18:23;;;;;;;34.97;24.17;;;6.30;99.00;;;;;;10450378;28;20045;-68
2020/12/08 00:23:25;;;;;;;39.78;25.83;;;6.30;99.20;;;;;;10450768;28;20136;-68
2020/12/08 00:28:26;;;;;;;39.13;25.50;;;6.10;99.10;;;;;;10433282;28;20081;-68
2020/12/08 00:33:27;;;;;;;33.95;23.73;;;6.10;99.10;;;;;;10448740;28;20052;-68
2020/12/08 00:38:29;;;;;;;37.03;25.65;;;6.10;99.60;;;;;;10451544;28;20130;-68
2020/12/08 00:43:31;;;;;;;34.95;24.88;;;6.00;99.40;;;;;;10449703;28;20061;-68
2020/12/08 00:48:32;;;;;;;31.20;23.65;;;6.00;99.90;;;;;;10444935;28;20044;-68
2020/12/08 00:53:34;;;;;;;35.00;24.95;;;6.10;99.80;;;;;;10450194;28;20053;-68
2020/12/08 00:58:36;;;;;;;32.47;23.88;;;6.10;99.70;;;;;;10450578;28;20453;-68
2020/12/08 01:03:38;;;;;;;33.60;24.73;;;6.00;99.60;;;;;;10445145;28;20045;-68
2020/12/08 01:08:40;;;;;;;34.92;24.90;;;6.20;99.70;;;;;;10450798;28;20139;-68
2020/12/08 01:13:41;;;;;;;31.50;23.33;;;6.30;99.60;;;;;;10449871;28;20139;-68
2020/12/08 01:18:43;;;;;;;30.98;22.30;;;6.30;99.10;;;;;;10446655;28;20049;-68
2020/12/08 01:23:45;;;;;;;29.33;21.38;;;6.40;98.80;;;;;;10449747;28;20497;-68
2020/12/08 01:28:47;;;;;;;26.30;19.98;;;6.30;98.20;;;;;;10447731;28;20049;-68
2020/12/08 01:33:49;;;;;;;24.17;18.90;;;6.10;98.00;;;;;;10447164;28;20088;-68
2020/12/08 01:38:50;;;;;;;21.92;17.70;;;6.00;97.90;;;;;;10457771;28;20080;-68
2020/12/08 01:43:54;;;;;;;22.40;18.00;;;5.90;97.10;;;;;;10457187;28;20075;-68
2020/12/08 01:48:57;;;;;;;23.58;17.55;;;5.80;97.40;;;;;;10458652;28;20132;-68
2020/12/08 01:53:59;;;;;;;22.08;16.38;;;5.60;97.20;;;;;;10456348;28;20129;-68
2020/12/08 01:59:00;;;;;;;23.08;16.88;;;5.50;97.10;;;;;;10458307;28;20048;-68
2020/12/08 02:04:02;;;;;;;23.13;17.25;;;5.40;96.80;;;;;;10455011;28;20485;-68
2020/12/08 02:09:03;;;;;;;21.60;16.50;;;5.30;96.90;;;;;;10458117;28;20053;-68
2020/12/08 02:14:05;;;;;;;22.90;17.20;;;5.30;97.00;;;;;;10456188;28;20045;-68
2020/12/08 02:19:07;;;;;;;19.75;15.30;;;5.20;97.00;;;;;;10457333;28;20535;-68
2020/12/08 02:24:08;;;;;;;19.30;15.02;;;5.20;96.80;;;;;;10456641;28;20108;-68
2020/12/08 02:29:11;;;;;;;18.88;14.15;;;5.20;96.40;;;;;;10457117;28;20131;-68
2020/12/08 02:34:12;;;;;;;18.48;14.02;;;5.00;96.10;;;;;;10456037;28;20099;-68
2020/12/08 02:39:13;;;;;;;17.23;13.15;;;5.00;96.30;;;;;;10450463;28;20077;-68
2020/12/08 02:44:15;;;;;;;16.27;12.73;;;5.10;96.20;;;;;;10450199;28;20049;-68
2020/12/08 02:49:18;;;;;;;15.90;12.40;;;5.10;95.80;;;;;;10455167;28;20083;-68
2020/12/08 02:54:19;;;;;;;16.05;12.70;;;5.00;95.80;;;;;;10455557;28;20084;-68
2020/12/08 02:59:22;;;;;;;14.23;11.05;;;5.00;95.50;;;;;;10454902;28;20076;-68
2020/12/08 03:04:23;;;;;;;12.65;10.45;;;4.90;95.50;;;;;;10451987;28;20053;-68
2020/12/08 03:09:25;;;;;;;13.50;10.63;;;5.00;95.50;;;;;;10456651;28;20049;-68
2020/12/08 03:14:26;;;;;;;13.48;10.68;;;5.00;95.40;;;;;;10456161;28;20482;-68
2020/12/08 03:19:27;;;;;;;14.23;11.38;;;5.20;95.20;;;;;;10455529;28;20072;-68
2020/12/08 03:24:29;;;;;;;14.45;11.40;;;5.20;95.10;;;;;;10454940;28;20132;-68
2020/12/08 03:29:30;;;;;;;13.70;10.77;;;5.10;94.80;;;;;;10454011;28;20080;-68
2020/12/08 03:34:33;;;;;;;13.27;10.55;;;5.00;94.70;;;;;;10455047;28;20114;-68
2020/12/08 03:39:35;;;;;;;14.95;11.48;;;5.10;94.60;;;;;;10455403;28;20133;-68
2020/12/08 03:44:36;;;;;;;13.02;11.05;;;5.00;94.30;;;;;;10454444;28;20056;-68
2020/12/08 03:49:39;;;;;;;15.30;11.10;;;4.90;94.70;;;;;;10454393;28;20079;-68
2020/12/08 03:54:40;;;;;;;11.63;9.75;;;4.90;94.70;;;;;;10441656;28;20503;-68
2020/12/08 03:59:42;;;;;;;11.02;9.18;;;4.90;94.10;;;;;;10442540;28;20497;-68
2020/12/08 04:04:43;;;;;;;10.60;8.88;;;5.00;94.80;;;;;;10446523;28;20045;-68
2020/12/08 04:09:45;;;;;;;12.23;9.60;;;5.10;94.40;;;;;;10443677;28;20123;-68
2020/12/08 04:14:47;;;;;;;11.55;9.57;;;5.20;94.10;;;;;;10448373;28;20049;-68
2020/12/08 04:19:48;;;;;;;11.63;9.40;;;5.10;94.20;;;;;;10441612;28;20132;-68
2020/12/08 04:24:50;;;;;;;12.15;10.10;;;5.10;93.90;;;;;;10444864;28;20128;-68
2020/12/08 04:29:51;;;;;;;13.70;10.18;;;5.10;93.80;;;;;;10443883;28;20128;-68
2020/12/08 04:34:53;;;;;;;12.55;10.40;;;5.10;93.80;;;;;;10445530;28;20056;-68
2020/12/08 04:39:54;;;;;;;12.88;10.68;;;5.10;93.70;;;;;;10442301;28;20139;-68
2020/12/08 04:44:58;;;;;;;13.07;11.05;;;5.20;94.00;;;;;;10444302;28;20064;-68
2020/12/08 04:50:00;;;;;;;14.43;11.57;;;5.30;94.20;;;;;;10439416;28;20532;-68
2020/12/08 04:55:03;;;;;;;15.55;12.70;;;5.30;93.80;;;;;;10441674;28;20040;-68
2020/12/08 05:00:12;;;;;;;14.98;12.10;;;5.30;93.50;;;;;;10440975;28;20079;-68
2020/12/08 05:05:17;;;;;;;16.60;13.27;;;5.20;93.50;;;;;;10444580;28;20654;-68
2020/12/08 05:10:28;;;;;;;16.27;13.32;;;5.20;93.60;;;;;;10445593;28;20136;-68
2020/12/08 05:15:30;;;;;;;18.13;13.60;;;5.10;93.80;;;;;;10441285;28;20080;-68
2020/12/08 05:20:31;;;;;;;17.90;14.55;;;5.10;94.40;;;;;;10436125;28;20505;-68
2020/12/08 05:25:33;;;;;;;18.45;14.77;;;5.20;93.80;;;;;;10442320;28;20071;-68
2020/12/08 05:30:44;;;;;;;18.10;14.70;;;5.20;94.10;;;;;;10438260;28;20064;-68
2020/12/08 05:35:46;;;;;;;20.93;15.37;;;5.30;93.90;;;;;;10435645;28;20110;-68
2020/12/08 05:40:51;;;;;;;18.75;15.32;;;5.30;93.90;;;;;;10443975;28;20493;-68
2020/12/08 05:45:55;;;;;;;19.30;16.48;;;5.40;93.80;;;;;;10454817;28;20083;-68
2020/12/08 05:51:03;;;;;;;19.45;15.27;;;5.40;94.00;;;;;;10446316;28;20077;-68
2020/12/08 05:56:08;;;;;;;20.67;15.82;;;5.40;94.40;;;;;;10443113;28;20045;-68
2020/12/08 06:01:10;;;;;;;21.42;16.30;;;5.40;94.30;;;;;;10440508;28;20140;-68
2020/12/08 06:06:11;;;;;;;21.30;16.85;;;5.30;94.30;;;;;;10445688;28;20499;-68
2020/12/08 06:11:14;;;;;;;20.58;16.38;;;5.30;94.30;;;;;;10434626;28;20048;-68
2020/12/08 06:16:18;;;;;;;20.02;16.17;;;5.40;94.10;;;;;;10442785;28;20085;-68
2020/12/08 06:21:24;;;;;;;22.45;17.08;;;5.30;94.50;;;;;;10436029;28;20095;-68
2020/12/08 06:26:32;;;;;;;23.40;17.52;;;5.40;94.60;;;;;;10453068;28;20056;-68
2020/12/08 06:31:47;;;;;;;23.05;17.30;;;5.30;94.50;;;;;;10446856;28;20080;-68
2020/12/08 06:36:49;;;;;;;20.88;17.30;;;5.30;94.90;;;;;;10448644;28;20450;-68
2020/12/08 06:41:50;;;;;;;22.58;17.30;;;5.20;94.90;;;;;;10447109;28;20075;-68
2020/12/08 06:46:58;;;;;;;23.10;17.73;;;5.20;94.90;;;;;;10442868;28;20137;-68
2020/12/08 06:52:00;;;;;;;22.90;18.13;;;5.30;94.90;;;;;;10445369;28;20064;-68
2020/12/08 06:57:05;;;;;;;26.15;19.83;;;5.40;94.70;;;;;;10443053;28;20068;-68
2020/12/08 07:02:10;;;;;;;24.83;19.05;;;5.50;95.10;;;;;;10445525;28;20068;-68
2020/12/08 07:07:12;;;;;;;23.38;18.00;;;5.50;94.70;;;;;;10439131;28;20732;-68
2020/12/08 07:12:13;;;;;;;25.10;19.30;;;5.50;94.70;;;;;;10448531;28;20474;-68
2020/12/08 07:17:15;;;;;;;24.92;19.65;;;5.50;94.60;;;;;;10437645;28;20513;-68
2020/12/08 07:22:16;;;;;;;23.77;18.15;;;5.50;94.70;;;;;;10448602;28;20077;-68
2020/12/08 07:27:19;;;;;;;24.50;19.55;;;5.50;94.90;;;;;;10448476;28;20152;-68
2020/12/08 07:32:27;;;;;;;23.58;18.08;;;5.50;94.90;;;;;;10435465;28;20087;-68
2020/12/08 07:37:36;;;;;;;22.55;16.73;;;5.60;94.50;;;;;;10443809;28;20051;-68
2020/12/08 07:42:38;;;;;;;21.13;16.38;;;5.60;93.90;;;;;;10445086;28;20077;-68
2020/12/08 07:47:58;;;;;;;20.95;16.67;;;5.60;93.80;;;;;;10447763;28;20091;-68
2020/12/08 07:53:01;;;;;;;19.75;15.60;;;5.70;93.80;;;;;;10441597;28;20084;-68
2020/12/08 07:58:03;;;;;;;20.42;15.82;;;5.70;93.60;;;;;;10444390;28;20041;-68
2020/12/08 08:03:05;;;;;;;19.58;15.30;;;5.80;93.80;;;;;;10444063;28;20746;-68
2020/12/08 08:08:07;;;;;;;18.90;14.50;;;5.90;93.30;;;;;;10462075;28;20122;-68
2020/12/08 08:13:08;;;;;;;20.00;15.00;;;6.00;93.20;;;;;;10435381;28;20476;-68
2020/12/08 08:18:09;;;;;;;18.13;14.15;;;5.90;92.30;;;;;;10439573;28;20132;-68
2020/12/08 08:23:11;;;;;;;18.05;13.52;;;5.80;92.80;;;;;;10443908;28;20057;-68
2020/12/08 08:28:12;;;;;;;16.42;13.02;;;5.90;92.70;;;;;;10435420;28;20102;-68
2020/12/08 08:33:14;;;;;;;16.90;12.82;;;5.90;92.80;;;;;;10448262;28;20072;-68
2020/12/08 08:38:16;;;;;;;16.95;13.35;;;6.10;93.30;;;;;;10440911;28;20053;-68
2020/12/08 08:43:17;;;;;;;16.30;12.70;;;6.20;92.90;;;;;;10442494;28;20462;-68
2020/12/08 08:48:19;;;;;;;17.05;12.55;;;6.40;92.40;;;;;;10440268;28;20355;-68
2020/12/08 08:53:21;;;;;;;15.07;12.23;;;6.30;92.00;;;;;;10438682;28;20140;-68
2020/12/08 08:58:22;;;;;;;14.43;11.60;;;6.20;92.10;;;;;;10442072;28;20049;-68
2020/12/08 09:03:24;;;;;;;14.05;11.50;;;6.30;92.20;;;;;;10444545;28;20556;-68
2020/12/08 09:08:25;;;;;;;14.75;12.13;;;6.40;92.10;;;;;;10442473;28;20079;-68
2020/12/08 09:13:27;;;;;;;13.95;11.02;;;6.50;92.20;;;;;;10448330;28;20072;-68
2020/12/08 09:18:28;;;;;;;15.15;12.23;;;6.60;92.00;;;;;;10443835;28;20501;-68
2020/12/08 09:23:30;;;;;;;14.57;11.48;;;6.70;91.80;;;;;;10438986;28;20549;-68
2020/12/08 09:28:33;;;;;;;13.18;11.27;;;6.80;91.30;;;;;;10438474;28;20054;-68
2020/12/08 09:33:36;;;;;;;14.98;11.98;;;6.80;91.30;;;;;;10434156;28;20048;-68
2020/12/08 09:38:37;;;;;;;15.35;12.43;;;6.70;90.80;;;;;;10435364;28;20045;-68
2020/12/08 09:43:39;;;;;;;14.85;11.73;;;6.60;90.70;;;;;;10443769;28;20115;-68
2020/12/08 09:48:40;;;;;;;12.63;10.60;;;6.60;90.90;;;;;;10445083;28;20564;-68
2020/12/08 09:53:42;;;;;;;12.43;10.05;;;6.50;90.70;;;;;;10443651;28;20111;-68
2020/12/08 09:58:43;;;;;;;12.80;10.43;;;6.50;90.60;;;;;;10443299;28;20037;-68
2020/12/08 10:03:45;;;;;;;12.65;10.48;;;6.60;90.90;;;;;;10443718;28;21118;-68
2020/12/08 10:08:47;;;;;;;11.82;10.40;;;6.50;90.80;;;;;;10451285;28;20118;-68
2020/12/08 10:13:49;;;;;;;12.60;10.57;;;6.50;90.70;;;;;;10447846;28;20532;-68
2020/12/08 10:18:52;;;;;;;13.55;11.05;;;6.70;89.80;;;;;;10449052;28;20124;-71
2020/12/08 10:23:54;;;;;;;13.25;11.10;;;6.70;90.10;;;;;;10445124;28;20045;-71
2020/12/08 10:28:56;;;;;;;14.30;11.23;;;6.90;89.70;;;;;;10452293;28;20055;-71
2020/12/08 10:33:58;;;;;;;14.10;11.15;;;7.20;90.20;;;;;;10448242;28;20076;-71
2020/12/08 10:38:59;;;;;;;14.27;11.65;;;7.20;90.10;;;;;;10453094;28;20105;-71
2020/12/08 10:44:01;;;;;;;15.90;11.77;;;7.20;89.10;;;;;;10443000;28;20114;-71
2020/12/08 10:49:07;;;;;;;14.50;10.30;;;7.30;89.20;;;;;;10439251;28;20091;-71
2020/12/08 10:54:08;;;;;;;12.43;10.55;;;7.10;86.90;;;;;;10446672;28;20498;-71
2020/12/08 10:59:10;;;;;;;12.45;10.80;;;6.90;87.70;;;;;;10443443;28;20087;-71
2020/12/08 11:04:12;;;;;;;12.52;11.20;;;6.90;88.00;;;;;;10443041;28;20140;-71
2020/12/08 11:09:14;;;;;;;13.60;11.13;;;7.00;88.60;;;;;;10431320;28;20045;-71
2020/12/08 11:14:16;;;;;;;12.80;10.80;;;7.20;89.40;;;;;;10448524;28;20456;-71
2020/12/08 11:19:17;;;;;;;12.13;10.32;;;7.40;87.20;;;;;;10444008;28;20099;-71
2020/12/08 11:24:19;;;;;;;12.52;10.50;;;7.60;88.50;;;;;;10445933;28;20091;-71
2020/12/08 11:29:20;;;;;;;14.60;11.68;;;7.60;86.60;;;;;;10450226;28;20128;-71
2020/12/08 11:34:21;;;;;;;12.13;10.50;;;7.50;85.70;;;;;;10437688;28;20509;-71
2020/12/08 11:39:23;;;;;;;13.77;10.90;;;7.60;85.30;;;;;;10439016;28;20049;-71
2020/12/08 11:44:25;;;;;;;14.73;11.23;;;7.50;84.60;;;;;;10449862;28;20095;-72
2020/12/08 11:49:26;;;;;;;11.88;10.40;;;7.80;85.10;;;;;;10444984;28;20076;-71
2020/12/08 11:54:28;;;;;;;13.88;10.52;;;7.70;85.40;;;;;;10447346;28;20473;-71
2020/12/08 11:59:29;;;;;;;14.63;10.50;;;7.80;85.50;;;;;;10442251;28;20144;-71
2020/12/08 12:04:30;;;;;;;11.88;9.55;;;7.80;84.60;;;;;;10442556;28;20732;-71
2020/12/08 12:09:32;;;;;;;13.32;11.23;;;7.60;84.30;;;;;;10446273;28;20077;-71
2020/12/08 12:14:33;;;;;;;12.32;9.80;;;7.40;85.10;;;;;;10434592;28;20136;-71
2020/12/08 12:19:35;;;;;;;12.68;10.15;;;7.50;86.30;;;;;;10437383;28;20146;-71
2020/12/08 12:24:36;;;;;;;15.20;9.95;;;7.50;84.70;;;;;;10448189;28;20041;-71
2020/12/08 12:29:38;;;;;;;12.93;9.65;;;7.60;84.80;;;;;;10431859;28;20464;-71
2020/12/08 12:34:39;;;;;;;13.20;10.18;;;7.70;84.00;;;;;;10442364;28;20539;-71
2020/12/08 12:39:44;;;;;;;13.90;9.55;;;7.80;84.80;;;;;;10435628;28;20084;-70
2020/12/08 12:44:46;;;;;;;11.25;9.20;;;8.10;83.80;;;;;;10452038;28;20076;-71
2020/12/08 12:49:48;;;;;;;12.23;9.75;;;8.50;83.40;;;;;;10441163;28;20111;-71
2020/12/08 12:54:50;;;;;;;11.02;8.70;;;8.50;82.20;;;;;;10444640;28;20060;-71
2020/12/08 12:59:51;;;;;;;11.50;9.40;;;8.30;80.50;;;;;;10434169;28;20076;-71
2020/12/08 13:04:53;;;;;;;11.95;9.25;;;8.10;82.60;;;;;;10437594;28;20504;-71
2020/12/08 13:09:54;;;;;;;14.15;9.95;;;8.00;82.60;;;;;;10444395;28;20041;-71
2020/12/08 13:14:56;;;;;;;12.45;9.48;;;7.80;83.60;;;;;;10441797;28;20639;-71
2020/12/08 13:19:57;;;;;;;13.65;9.80;;;7.90;83.80;;;;;;10442189;28;20471;-71
2020/12/08 13:24:59;;;;;;;12.35;9.57;;;7.70;83.40;;;;;;10437260;28;20139;-71
2020/12/08 13:30:00;;;;;;;12.90;10.45;;;7.90;84.20;;;;;;10439483;28;20045;-71
2020/12/08 13:35:02;;;;;;;12.27;10.27;;;7.90;83.70;;;;;;10463377;28;20073;-71
2020/12/08 13:40:04;;;;;;;12.32;9.55;;;8.00;84.20;;;;;;10455689;28;20080;-71
2020/12/08 13:45:06;;;;;;;12.45;9.93;;;7.90;83.10;;;;;;10445630;28;20080;-71
2020/12/08 13:50:09;;;;;;;13.82;8.88;;;8.10;83.90;;;;;;10449480;28;20037;-71
2020/12/08 13:55:10;;;;;;;11.35;9.20;;;7.90;82.50;;;;;;10455094;28;20072;-71
2020/12/08 14:00:12;;;;;;;11.13;9.25;;;7.90;82.60;;;;;;10438674;28;20441;-71
2020/12/08 14:05:13;;;;;;;10.75;8.80;;;7.90;83.40;;;;;;10442638;28;20092;-71
2020/12/08 14:10:15;;;;;;;11.30;8.82;;;7.90;83.60;;;;;;10433988;28;20084;-71
2020/12/08 14:15:17;;;;;;;14.40;9.23;;;7.70;83.60;;;;;;10447447;28;20057;-71
2020/12/08 14:20:19;;;;;;;12.10;9.35;;;7.80;83.70;;;;;;10448805;28;20584;-71
2020/12/08 14:25:21;;;;;;;10.68;9.02;;;7.60;84.00;;;;;;10448055;28;20057;-71
2020/12/08 14:30:22;;;;;;;11.52;8.88;;;7.50;84.80;;;;;;10438762;28;20196;-71
2020/12/08 14:35:24;;;;;;;11.60;9.32;;;7.50;85.00;;;;;;10447786;28;20077;-71
2020/12/08 14:40:25;;;;;;;16.42;10.38;;;7.50;84.80;;;;;;10448457;28;20040;-71
2020/12/08 14:45:30;;;;;;;12.88;9.80;;;7.50;85.20;;;;;;10449802;28;20488;-71
2020/12/08 14:50:32;;;;;;;15.57;10.88;;;7.40;85.30;;;;;;10449956;28;20562;-71
2020/12/08 14:55:34;;;;;;;14.10;11.02;;;7.20;86.10;;;;;;10452702;28;20489;-70
2020/12/08 15:00:35;;;;;;;14.80;11.50;;;7.20;85.70;;;;;;10443701;28;20099;-71
2020/12/08 15:05:37;;;;;;;15.73;12.07;;;7.10;86.70;;;;;;10444483;28;20045;-71
2020/12/08 15:10:40;;;;;;;15.23;11.88;;;7.10;86.80;;;;;;10450165;28;20072;-71
2020/12/08 15:15:41;;;;;;;13.93;11.63;;;7.10;87.00;;;;;;10445982;28;20132;-71
2020/12/08 15:20:47;;;;;;;15.32;11.70;;;7.10;86.90;;;;;;10462619;28;20053;-71
2020/12/08 15:25:48;;;;;;;13.63;11.13;;;7.00;87.30;;;;;;10448253;28;20405;-71
2020/12/08 15:30:56;;;;;;;14.38;11.27;;;7.00;87.80;;;;;;10438332;28;20128;-71
2020/12/08 15:35:57;;;;;;;15.00;11.95;;;7.00;88.20;;;;;;10447312;28;20041;-71
2020/12/08 15:40:59;;;;;;;16.10;11.45;;;7.00;88.10;;;;;;10437135;28;20044;-71
2020/12/08 15:46:02;;;;;;;15.30;11.93;;;7.10;88.40;;;;;;10426296;28;20487;-71
2020/12/08 15:51:04;;;;;;;16.20;11.38;;;7.10;87.60;;;;;;10447762;28;20329;-71
2020/12/08 15:56:05;;;;;;;17.38;11.40;;;7.10;88.30;;;;;;10448547;28;20485;-71
2020/12/08 16:01:08;;;;;;;14.13;10.85;;;7.10;88.40;;;;;;10442794;28;20073;-71
2020/12/08 16:06:10;;;;;;;13.55;11.15;;;6.90;88.00;;;;;;10444393;28;20136;-71
2020/12/08 16:11:12;;;;;;;21.85;11.50;;;6.90;88.50;;;;;;10446532;28;20491;-71
2020/12/08 16:16:13;;;;;;;16.65;12.95;;;6.90;89.00;;;;;;10449149;28;20041;-71
2020/12/08 16:21:15;;;;;;;14.60;12.07;;;6.90;89.40;;;;;;10441831;28;20124;-71
2020/12/08 16:26:16;;;;;;;20.27;12.82;;;6.90;89.10;;;;;;10441956;28;20133;-71
2020/12/08 16:31:24;;;;;;;17.65;13.07;;;6.90;88.90;;;;;;10441138;28;20046;-71
2020/12/08 16:36:26;;;;;;;19.05;12.40;;;6.90;88.90;;;;;;10438358;28;20052;-71
2020/12/08 16:41:31;;;;;;;16.48;12.35;;;6.70;88.40;;;;;;10438235;28;20173;-70
2020/12/08 16:46:32;;;;;;;24.05;13.07;;;6.70;89.50;;;;;;10399110;28;20053;-71
2020/12/08 16:51:36;;;;;;;17.13;13.50;;;6.60;89.10;;;;;;10401907;28;20526;-71
2020/12/08 16:56:39;;;;;;;19.15;13.63;;;6.60;89.60;;;;;;10403441;28;20429;-71
2020/12/08 17:01:41;;;;;;;17.17;12.98;;;6.50;88.60;;;;;;10397286;28;20060;-71
2020/12/08 17:06:43;;;;;;;19.33;13.88;;;6.40;89.10;;;;;;10402521;28;20041;-68
2020/12/08 17:11:44;;;;;;;16.88;13.25;;;6.30;89.60;;;;;;10399629;28;20335;-68
2020/12/08 17:16:47;;;;;;;15.70;12.70;;;6.10;90.00;;;;;;10403821;28;20045;-68
2020/12/08 17:21:48;;;;;;;18.17;13.65;;;6.00;89.90;;;;;;10389404;28;20052;-67
2020/12/08 17:26:50;;;;;;;23.90;14.85;;;5.90;90.30;;;;;;10397911;28;20490;-67
2020/12/08 17:31:51;;;;;;;25.45;16.73;;;5.80;90.60;;;;;;10399767;28;20049;-67
2020/12/08 17:36:54;;;;;;;24.23;14.85;;;5.70;91.20;;;;;;10389465;28;20041;-68
2020/12/08 17:41:56;;;;;;;22.42;14.90;;;5.60;91.90;;;;;;10392347;28;20058;-68
2020/12/08 17:47:00;;;;;;;20.88;15.07;;;5.50;92.50;;;;;;10396142;28;20049;-67
2020/12/08 17:52:03;;;;;;;25.05;18.02;;;5.50;92.70;;;;;;10400225;28;20055;-68
2020/12/08 17:57:04;;;;;;;29.15;19.40;;;5.50;93.00;;;;;;10395247;28;20045;-67
2020/12/08 18:02:05;;;;;;;24.60;18.60;;;5.50;92.90;;;;;;10391891;28;20042;-68
2020/12/08 18:07:09;;;;;;;27.38;20.05;;;5.60;92.90;;;;;;10394523;28;20117;-68
2020/12/08 18:12:10;;;;;;;23.98;16.92;;;5.70;92.90;;;;;;10395322;28;20046;-68
2020/12/08 18:17:11;;;;;;;20.40;15.27;;;5.60;93.00;;;;;;10418776;28;20068;-68
2020/12/08 18:22:13;;;;;;;23.13;19.48;;;5.50;93.00;;;;;;10406783;28;20120;-68
2020/12/08 18:27:15;;;;;;;26.27;19.08;;;5.50;93.00;;;;;;10407592;28;20061;-68
2020/12/08 18:32:16;;;;;;;23.85;18.60;;;5.50;93.00;;;;;;10404894;28;20045;-67
2020/12/08 18:37:18;;;;;;;20.20;15.35;;;5.50;93.30;;;;;;10400648;28;20137;-68
2020/12/08 18:42:23;;;;;;;33.38;22.20;;;5.50;93.20;;;;;;10403038;28;20413;-68
2020/12/08 18:47:25;;;;;;;26.83;18.20;;;5.30;93.50;;;;;;10401880;28;20057;-68
2020/12/08 18:52:26;;;;;;;25.80;16.63;;;5.40;93.60;;;;;;10396524;28;20397;-67
2020/12/08 18:57:31;;;;;;;21.98;16.50;;;5.40;93.70;;;;;;10405320;28;20042;-68
2020/12/08 19:02:32;;;;;;;19.83;15.90;;;5.40;93.70;;;;;;10396356;28;20049;-67
2020/12/08 19:07:35;;;;;;;20.02;14.30;;;5.30;93.70;;;;;;10402351;28;20440;-68
2020/12/08 19:12:37;;;;;;;19.85;15.65;;;5.30;93.90;;;;;;10405397;28;20072;-68
2020/12/08 19:17:39;;;;;;;23.85;19.08;;;5.30;94.00;;;;;;10407994;28;20061;-68
2020/12/08 19:22:42;;;;;;;26.08;20.20;;;5.30;93.90;;;;;;10410223;28;20132;-68
2020/12/08 19:27:54;;;;;;;26.17;18.80;;;5.30;94.10;;;;;;10406440;28;20429;-67
2020/12/08 19:32:56;;;;;;;19.95;16.02;;;5.20;93.90;;;;;;10430144;28;20065;-67
2020/12/08 19:37:58;;;;;;;18.10;13.73;;;5.20;94.00;;;;;;10400413;28;20053;-68
2020/12/08 19:43:00;;;;;;;18.73;13.93;;;5.10;94.10;;;;;;10398337;28;20046;-67
2020/12/08 19:48:02;;;;;;;17.50;13.57;;;5.00;94.20;;;;;;10404682;28;20060;-67
2020/12/08 19:53:03;;;;;;;17.83;12.93;;;5.00;94.50;;;;;;10394372;28;20061;-67
2020/12/08 19:58:06;;;;;;;16.58;12.32;;;4.90;94.50;;;;;;10410304;28;20520;-67
2020/12/08 20:03:07;;;;;;;16.80;12.18;;;5.00;94.50;;;;;;10404690;28;20052;-67
2020/12/08 20:08:09;;;;;;;18.20;12.93;;;4.90;94.60;;;;;;10405701;28;20105;-67
2020/12/08 20:13:11;;;;;;;22.30;13.20;;;4.90;94.60;;;;;;10406651;28;20056;-67
2020/12/08 20:18:12;;;;;;;22.67;13.43;;;4.90;94.70;;;;;;10393502;28;20536;-67
2020/12/08 20:23:13;;;;;;;18.92;13.98;;;4.80;94.70;;;;;;10402675;28;20128;-67
2020/12/08 20:28:15;;;;;;;19.30;14.55;;;4.80;94.50;;;;;;10396695;28;20304;-67
2020/12/08 20:33:16;;;;;;;23.83;15.95;;;4.70;94.60;;;;;;10396223;28;20517;-67
2020/12/08 20:38:18;;;;;;;20.17;14.05;;;4.70;94.80;;;;;;10401750;28;20053;-67
2020/12/08 20:43:19;;;;;;;20.38;13.80;;;4.60;94.70;;;;;;10402173;28;20053;-67
2020/12/08 20:48:22;;;;;;;19.83;14.18;;;4.50;95.10;;;;;;10403705;28;20093;-67
2020/12/08 20:53:23;;;;;;;21.02;14.68;;;4.60;95.00;;;;;;10395803;28;20602;-67
2020/12/08 20:58:25;;;;;;;17.70;13.43;;;4.50;94.70;;;;;;10403556;28;20446;-67
2020/12/08 21:03:27;;;;;;;19.80;13.88;;;4.50;94.80;;;;;;10400171;28;20485;-67
2020/12/08 21:08:28;;;;;;;19.27;13.82;;;4.50;94.90;;;;;;10402746;28;20417;-67
2020/12/08 21:13:30;;;;;;;19.05;14.55;;;4.40;94.80;;;;;;10394714;28;20041;-67
2020/12/08 21:18:31;;;;;;;19.25;14.00;;;4.30;94.80;;;;;;10400517;28;20072;-67
2020/12/08 21:23:33;;;;;;;20.27;14.88;;;4.20;95.00;;;;;;10400229;28;20048;-67
2020/12/08 21:28:35;;;;;;;23.45;15.32;;;4.20;95.00;;;;;;10403433;28;20045;-67
2020/12/08 21:33:36;;;;;;;23.27;14.57;;;4.20;95.20;;;;;;10409112;28;20180;-67
2020/12/08 21:38:38;;;;;;;23.83;14.90;;;4.10;95.20;;;;;;10408760;28;20081;-67
2020/12/08 21:43:40;;;;;;;17.10;13.15;;;4.10;95.30;;;;;;10408627;28;20059;-67
2020/12/08 21:48:42;;;;;;;21.88;14.43;;;4.10;95.40;;;;;;10409092;28;20417;-67
2020/12/08 21:53:45;;;;;;;20.05;14.25;;;4.10;95.40;;;;;;10413705;28;20092;-67
2020/12/08 21:58:46;;;;;;;24.00;16.38;;;4.10;95.30;;;;;;10416919;28;20438;-67
2020/12/08 22:03:48;;;;;;;25.63;17.95;;;4.00;95.30;;;;;;10415757;28;20140;-67
2020/12/08 22:08:49;;;;;;;26.83;16.77;;;3.80;95.50;;;;;;10416899;28;20072;-67
2020/12/08 22:13:51;;;;;;;26.40;16.70;;;3.80;95.60;;;;;;10416353;28;20077;-67
2020/12/08 22:18:53;;;;;;;24.15;14.88;;;3.70;95.80;;;;;;10416699;28;20056;-67
2020/12/08 22:23:55;;;;;;;23.00;16.10;;;3.80;95.70;;;;;;10414337;28;20053;-67
2020/12/08 22:28:59;;;;;;;22.92;16.17;;;3.70;95.50;;;;;;10415158;28;20056;-67
2020/12/08 22:34:01;;;;;;;29.27;17.30;;;3.70;95.70;;;;;;10416322;28;20084;-67
2020/12/08 22:39:04;;;;;;;23.60;15.77;;;3.70;95.70;;;;;;10415349;28;20203;-67
2020/12/08 22:44:06;;;;;;;22.67;16.35;;;3.60;95.80;;;;;;10414583;28;20054;-67
2020/12/08 22:49:08;;;;;;;25.50;17.17;;;3.70;95.80;;;;;;10414862;28;20077;-67
2020/12/08 22:54:09;;;;;;;24.67;17.13;;;3.60;96.00;;;;;;10411489;28;20099;-67
2020/12/08 22:59:11;;;;;;;25.67;17.02;;;3.70;96.20;;;;;;10411615;28;20368;-67
2020/12/08 23:04:13;;;;;;;24.52;17.13;;;3.70;95.80;;;;;;10412496;28;20089;-67
2020/12/08 23:09:15;;;;;;;28.30;19.02;;;3.70;95.80;;;;;;10413943;28;20107;-67
2020/12/08 23:14:17;;;;;;;28.80;17.88;;;3.60;95.70;;;;;;10412559;28;20054;-67
2020/12/08 23:19:18;;;;;;;24.52;17.33;;;3.60;95.80;;;;;;10412737;28;20124;-67
2020/12/08 23:24:21;;;;;;;27.73;18.92;;;3.70;96.00;;;;;;10413640;28;20053;-67
2020/12/08 23:29:22;;;;;;;29.48;19.90;;;3.70;96.00;;;;;;10410695;28;20111;-67
2020/12/08 23:34:24;;;;;;;26.05;18.63;;;3.80;96.20;;;;;;10413313;28;20080;-67
2020/12/08 23:39:26;;;;;;;27.23;17.55;;;3.80;96.40;;;;;;10412691;28;20076;-67
2020/12/08 23:44:28;;;;;;;29.67;20.60;;;3.90;96.40;;;;;;10411760;28;20490;-67
2020/12/08 23:49:29;;;;;;;29.90;21.27;;;3.90;96.10;;;;;;10411905;28;20081;-67
2020/12/08 23:54:35;;;;;;;25.98;18.13;;;3.80;96.30;;;;;;10412186;28;20072;-67
2020/12/08 23:59:40;;;;;;;25.27;16.92;;;3.90;96.00;;;;;;10411196;28;20470;-67
